Pagrindinis puslapis
METAR-TAF:

METAR-TAF

Oro uostai :

Bauru, San Paulas, Brazilija

platuma: 22-19S, ilguma: 049-04W, Aukštis: 590 m

Dabartinis oras

Ataskaita buvo paskelbta 52 minutes, ne 09:00 UTC
Vėjas 7 kt iš Rytų/Šiaurės Rytų
Temperatūra 21°C
Drėgmė 83%
Slėgis 1013 hPa
Matomumas 10 km arba daugiau
nėra debesų žemiau 1500 m ir nėra kamuolinių lietaus debesų

METAR: SBBU 090900Z 07007KT CAVOK 21/18 Q1013

Laikas: 06:52 (09:52 UTC)

Prognozė

Ataskaita buvo paskelbta 6 valandos ir 52 minutes, ne 03:00 UTC
Prognozė galioja nuo 09 metu 06 UTC su 09 metu 18 UTC
Vėjas 8 kt iš Rytų/Pietryčių
Matomumas 10 km arba daugiau
nėra debesų žemiau 1500 m ir nėra kamuolinių lietaus debesų
Tapsmas
nuo 09 metu 14 UTC su 09 metu 16 UTC
Matomumas 10 km arba daugiau
Išsisklaidę debesys ne aukštis 4000 ft
Mažai debesys ne aukštis 4500 ft, aukštai iškilę kamuoliniai debesys.

TAF: SBBU 090300Z 0906/0918 11008KT CAVOK TN23/0908Z TX30/0918Z BECMG 0914/0916 9999 SCT040 FEW045TCU RMK PDJ

Orai ataskaitas ir orų prognozės (METAR, TAF).

turimą stotys yra geltonos ir raudonos taškus žemėlapyje.

Perkelti pele per norėdami pamatyti stoties vardą.

Tada spustelėkite, norėdami matyti oro stebėjimo ir prognozės.

Norėdami pakeisti žemėlapį: spustelėkite ant žalios mygtukų su juodo kryžiaus žemyn,; žalią mygtuką su brūkšneliu, jei norite nutolinti; arba žalių rodyklių gretimoms žemėlapius.


METAR-TAF: